Time;durP1;ratioP1;P1;durP2;ratioP2;P2;SDS_P1;SDS_P2;PMS_P1;PMS_P2;Temp;Humidity;BMP_temperature;BMP_pressure;BME280_temperature;BME280_humidity;BME280_pressure;Samples;Min_cycle;Max_cycle;Signal;HPM_P1;HPM_P2
2022/07/22 00:00:24;;;;;;;4.93;2.80;;;;;;;;;;5088286;28;20161;-67
2022/07/22 00:02:50;;;;;;;8.98;2.47;;;;;;;;;;5088806;28;20036;-67
2022/07/22 00:05:17;;;;;;;6.38;2.20;;;;;;;;;;5086908;28;20109;-67
2022/07/22 00:07:43;;;;;;;6.55;2.75;;;;;;;;;;5089000;28;20036;-67
2022/07/22 00:10:10;;;;;;;9.55;2.83;;;;;;;;;;5083777;28;20528;-67
2022/07/22 00:12:37;;;;;;;7.68;2.80;;;;;;;;;;5104458;27;20032;-67
2022/07/22 00:15:04;;;;;;;7.45;2.60;;;;;;;;;;5088438;28;20067;-67
2022/07/22 00:17:31;;;;;;;9.88;2.78;;;;;;;;;;5088459;28;20097;-67
2022/07/22 00:19:57;;;;;;;7.95;3.08;;;;;;;;;;5079308;28;20036;-67
2022/07/22 00:22:23;;;;;;;8.48;2.30;;;;;;;;;;5081186;28;20043;-67
2022/07/22 00:24:49;;;;;;;5.82;2.25;;;;;;;;;;5070038;28;20247;-67
2022/07/22 00:27:16;;;;;;;8.43;2.60;;;;;;;;;;5085732;28;20028;-67
2022/07/22 00:29:42;;;;;;;9.43;2.63;;;;;;;;;;5073942;28;20063;-67
2022/07/22 00:32:08;;;;;;;5.97;2.20;;;;;;;;;;5092214;28;20082;-67
2022/07/22 00:34:34;;;;;;;9.95;2.42;;;;;;;;;;5089338;28;20365;-67
2022/07/22 00:37:00;;;;;;;8.00;2.78;;;;;;;;;;5087582;28;20032;-67
2022/07/22 00:39:26;;;;;;;7.10;2.20;;;;;;;;;;5092825;28;20137;-69
2022/07/22 00:41:52;;;;;;;6.93;2.50;;;;;;;;;;5107055;27;20052;-70
2022/07/22 00:44:18;;;;;;;5.40;2.17;;;;;;;;;;5096013;28;20048;-69
2022/07/22 00:46:45;;;;;;;5.68;2.45;;;;;;;;;;5088821;28;20489;-69
2022/07/22 00:49:11;;;;;;;8.20;2.83;;;;;;;;;;5090273;28;20062;-70
2022/07/22 00:51:39;;;;;;;8.65;3.00;;;;;;;;;;5082536;28;20045;-70
2022/07/22 00:54:05;;;;;;;6.75;2.65;;;;;;;;;;5087449;28;20115;-70
2022/07/22 00:56:32;;;;;;;3.50;2.00;;;;;;;;;;5094418;28;20517;-70
2022/07/22 00:58:59;;;;;;;8.00;2.63;;;;;;;;;;5090999;28;20043;-70
2022/07/22 01:01:26;;;;;;;6.50;2.13;;;;;;;;;;5089197;28;20067;-70
2022/07/22 01:03:52;;;;;;;7.05;2.25;;;;;;;;;;5085367;28;20036;-69
2022/07/22 01:06:19;;;;;;;6.53;2.83;;;;;;;;;;5084632;28;20097;-70
2022/07/22 01:08:45;;;;;;;6.00;2.25;;;;;;;;;;5086470;28;20555;-70
2022/07/22 01:11:13;;;;;;;6.88;2.67;;;;;;;;;;5090214;28;20482;-70
2022/07/22 01:13:39;;;;;;;7.25;2.30;;;;;;;;;;5087925;28;20063;-70
2022/07/22 01:16:06;;;;;;;8.82;2.33;;;;;;;;;;5086316;28;20051;-69
2022/07/22 01:18:32;;;;;;;6.97;2.55;;;;;;;;;;5089313;28;20397;-70
2022/07/22 01:20:58;;;;;;;8.55;2.58;;;;;;;;;;5087334;28;20048;-70
2022/07/22 01:23:25;;;;;;;16.70;3.42;;;;;;;;;;5089731;28;20043;-70
2022/07/22 01:25:51;;;;;;;5.45;1.80;;;;;;;;;;5094707;28;20130;-70
2022/07/22 01:28:17;;;;;;;10.48;2.53;;;;;;;;;;5089593;28;20040;-70
2022/07/22 01:30:43;;;;;;;14.23;3.25;;;;;;;;;;5093024;28;20039;-70
2022/07/22 01:33:09;;;;;;;6.78;2.00;;;;;;;;;;5076500;28;20047;-70
2022/07/22 01:35:36;;;;;;;6.47;2.28;;;;;;;;;;5093363;28;20111;-70
2022/07/22 01:38:02;;;;;;;4.72;1.95;;;;;;;;;;5074682;28;20044;-70
2022/07/22 01:40:28;;;;;;;6.65;2.10;;;;;;;;;;5081141;28;20044;-70
2022/07/22 01:42:54;;;;;;;3.72;1.88;;;;;;;;;;5093149;28;20048;-70
2022/07/22 01:45:20;;;;;;;5.95;2.10;;;;;;;;;;5090890;28;20176;-70
2022/07/22 01:47:46;;;;;;;4.95;2.83;;;;;;;;;;5078717;28;20080;-70
2022/07/22 01:50:13;;;;;;;6.80;2.28;;;;;;;;;;5101248;28;20239;-70
2022/07/22 01:52:39;;;;;;;8.82;2.55;;;;;;;;;;5080442;28;20044;-69
2022/07/22 01:55:07;;;;;;;6.63;2.50;;;;;;;;;;5096353;28;20132;-70
2022/07/22 01:57:34;;;;;;;3.63;1.80;;;;;;;;;;5097169;28;20127;-70
2022/07/22 02:00:00;;;;;;;6.80;2.35;;;;;;;;;;5090903;28;20079;-70
2022/07/22 02:02:26;;;;;;;8.45;2.22;;;;;;;;;;5074779;28;20076;-70
2022/07/22 02:04:52;;;;;;;8.50;2.40;;;;;;;;;;5089926;28;20050;-70
2022/07/22 02:07:18;;;;;;;8.73;3.08;;;;;;;;;;5095715;28;20086;-71
2022/07/22 02:09:44;;;;;;;10.30;3.47;;;;;;;;;;5098183;28;20056;-70
2022/07/22 02:12:10;;;;;;;10.15;2.75;;;;;;;;;;5080898;28;20543;-70
2022/07/22 02:14:36;;;;;;;6.82;2.53;;;;;;;;;;5093402;28;20138;-69
2022/07/22 02:17:03;;;;;;;8.00;2.70;;;;;;;;;;5092158;28;20044;-70
2022/07/22 02:19:29;;;;;;;7.60;3.15;;;;;;;;;;5087991;28;20040;-70
2022/07/22 02:21:55;;;;;;;6.32;3.17;;;;;;;;;;5092453;28;20054;-70
2022/07/22 02:24:21;;;;;;;10.55;2.95;;;;;;;;;;5089783;28;20509;-70
2022/07/22 02:26:47;;;;;;;7.18;2.47;;;;;;;;;;5094332;28;20047;-70
2022/07/22 02:29:14;;;;;;;5.40;2.42;;;;;;;;;;5093103;28;20048;-70
2022/07/22 02:31:40;;;;;;;6.63;2.35;;;;;;;;;;5100544;28;20053;-70
2022/07/22 02:34:06;;;;;;;6.65;2.25;;;;;;;;;;5098788;28;20455;-70
2022/07/22 02:36:32;;;;;;;6.28;2.83;;;;;;;;;;5094400;28;20074;-70
2022/07/22 02:38:58;;;;;;;5.78;2.70;;;;;;;;;;5093922;28;20050;-70
2022/07/22 02:41:25;;;;;;;4.65;2.05;;;;;;;;;;5091514;28;20044;-70
2022/07/22 02:43:53;;;;;;;6.13;2.10;;;;;;;;;;5090637;28;20106;-70
2022/07/22 02:46:21;;;;;;;7.35;2.78;;;;;;;;;;5098129;28;20492;-70
2022/07/22 02:48:47;;;;;;;8.65;2.42;;;;;;;;;;5098155;28;20052;-70
2022/07/22 02:51:13;;;;;;;5.20;2.50;;;;;;;;;;5090324;28;20177;-70
2022/07/22 02:53:39;;;;;;;7.57;2.92;;;;;;;;;;5076782;28;20345;-70
2022/07/22 02:56:05;;;;;;;5.88;2.42;;;;;;;;;;5100330;27;20040;-70
2022/07/22 02:58:32;;;;;;;7.18;2.33;;;;;;;;;;5082676;28;20118;-70
2022/07/22 03:00:58;;;;;;;9.98;2.72;;;;;;;;;;5089834;28;20044;-70
2022/07/22 03:03:24;;;;;;;6.90;2.72;;;;;;;;;;5096302;28;20067;-70
2022/07/22 03:05:50;;;;;;;8.25;2.90;;;;;;;;;;5104578;27;20174;-70
2022/07/22 03:08:17;;;;;;;4.95;2.47;;;;;;;;;;5091508;28;20112;-70
2022/07/22 03:10:43;;;;;;;5.63;2.42;;;;;;;;;;5103479;27;20051;-70
2022/07/22 03:13:09;;;;;;;5.30;2.08;;;;;;;;;;5094214;28;20032;-70
2022/07/22 03:15:35;;;;;;;5.13;2.55;;;;;;;;;;5111610;27;20151;-70
2022/07/22 03:18:01;;;;;;;10.88;2.53;;;;;;;;;;5091145;28;20048;-70
2022/07/22 03:20:27;;;;;;;8.35;2.95;;;;;;;;;;5069996;28;20040;-70
2022/07/22 03:22:53;;;;;;;7.25;2.15;;;;;;;;;;5098946;27;20044;-70
2022/07/22 03:25:20;;;;;;;7.28;2.42;;;;;;;;;;5084764;28;20510;-70
2022/07/22 03:27:46;;;;;;;8.35;2.08;;;;;;;;;;5072647;28;20108;-70
2022/07/22 03:30:12;;;;;;;5.47;2.10;;;;;;;;;;5091287;28;20050;-70
2022/07/22 03:32:38;;;;;;;4.60;2.17;;;;;;;;;;5087460;28;20051;-67
2022/07/22 03:35:05;;;;;;;6.15;2.28;;;;;;;;;;5089266;28;20494;-68
2022/07/22 03:37:31;;;;;;;4.88;2.03;;;;;;;;;;5072244;28;20086;-67
2022/07/22 03:39:57;;;;;;;3.92;2.20;;;;;;;;;;5088195;28;20088;-67
2022/07/22 03:42:23;;;;;;;5.85;1.90;;;;;;;;;;5083413;28;20104;-67
2022/07/22 03:44:49;;;;;;;7.35;2.65;;;;;;;;;;5088860;28;20508;-67
2022/07/22 03:47:19;;;;;;;5.63;2.10;;;;;;;;;;5074336;28;20082;-67
2022/07/22 03:49:45;;;;;;;4.78;2.20;;;;;;;;;;5089641;28;20044;-67
2022/07/22 03:52:12;;;;;;;4.63;1.67;;;;;;;;;;5082600;28;20044;-67
2022/07/22 03:54:39;;;;;;;8.02;2.70;;;;;;;;;;5087667;28;20067;-68
2022/07/22 03:57:05;;;;;;;6.68;2.33;;;;;;;;;;5092245;28;20040;-67
2022/07/22 03:59:31;;;;;;;3.72;1.90;;;;;;;;;;5094476;28;20039;-68
2022/07/22 04:01:57;;;;;;;6.30;2.47;;;;;;;;;;5084395;28;20040;-67
2022/07/22 04:04:23;;;;;;;5.00;2.08;;;;;;;;;;5094445;28;20040;-67
2022/07/22 04:06:51;;;;;;;7.45;3.03;;;;;;;;;;5091704;28;20181;-67
2022/07/22 04:09:17;;;;;;;9.80;2.60;;;;;;;;;;5093682;28;20036;-67
2022/07/22 04:11:44;;;;;;;4.25;2.00;;;;;;;;;;5072188;28;20054;-67
2022/07/22 04:14:10;;;;;;;7.75;2.88;;;;;;;;;;5068948;28;20035;-67
2022/07/22 04:16:38;;;;;;;6.90;1.77;;;;;;;;;;5090719;28;20039;-67
2022/07/22 04:19:05;;;;;;;5.78;2.33;;;;;;;;;;5105184;27;20446;-67
2022/07/22 04:21:31;;;;;;;6.85;1.95;;;;;;;;;;5085465;28;20091;-68
2022/07/22 04:23:58;;;;;;;8.00;2.38;;;;;;;;;;5088474;28;20040;-67
2022/07/22 04:26:24;;;;;;;7.35;2.28;;;;;;;;;;5090064;28;20107;-67
2022/07/22 04:28:50;;;;;;;5.47;2.47;;;;;;;;;;5088342;28;20451;-67
2022/07/22 04:31:16;;;;;;;3.60;1.73;;;;;;;;;;5087950;28;20048;-67
2022/07/22 04:33:42;;;;;;;6.80;2.00;;;;;;;;;;5086499;28;20040;-67
2022/07/22 04:36:09;;;;;;;3.78;1.63;;;;;;;;;;5087448;28;20081;-67
2022/07/22 04:38:35;;;;;;;4.95;1.58;;;;;;;;;;5084597;28;20055;-67
2022/07/22 04:41:01;;;;;;;4.72;2.20;;;;;;;;;;5086461;28;20508;-67
2022/07/22 04:43:27;;;;;;;3.17;1.50;;;;;;;;;;5086795;28;20048;-67
2022/07/22 04:45:53;;;;;;;3.72;1.67;;;;;;;;;;5050428;28;20063;-67
2022/07/22 04:48:20;;;;;;;5.15;1.83;;;;;;;;;;5069721;28;20044;-67
2022/07/22 04:50:46;;;;;;;2.72;1.55;;;;;;;;;;5085510;28;20096;-67
2022/07/22 04:53:12;;;;;;;4.70;1.90;;;;;;;;;;5070087;28;20032;-67
2022/07/22 04:55:38;;;;;;;3.47;1.40;;;;;;;;;;5088082;28;20123;-67
2022/07/22 04:58:04;;;;;;;4.53;2.03;;;;;;;;;;5087503;28;20405;-67
2022/07/22 05:00:31;;;;;;;4.32;1.50;;;;;;;;;;5081276;28;20063;-67
2022/07/22 05:02:57;;;;;;;4.93;1.95;;;;;;;;;;5069252;28;20405;-67
2022/07/22 05:05:24;;;;;;;4.22;1.50;;;;;;;;;;5084485;28;20043;-67
2022/07/22 05:07:50;;;;;;;2.95;1.50;;;;;;;;;;5085065;28;20088;-67
2022/07/22 05:10:16;;;;;;;5.75;2.00;;;;;;;;;;5079583;28;20084;-67
2022/07/22 05:12:43;;;;;;;6.75;2.30;;;;;;;;;;5078321;28;20068;-67
2022/07/22 05:15:09;;;;;;;3.13;1.67;;;;;;;;;;5088724;28;20067;-67
2022/07/22 05:17:35;;;;;;;7.55;2.20;;;;;;;;;;5085554;28;20043;-67
2022/07/22 05:20:05;;;;;;;8.07;2.55;;;;;;;;;;5081327;28;20127;-67
2022/07/22 05:22:31;;;;;;;2.83;1.52;;;;;;;;;;5094432;28;20269;-68
2022/07/22 05:24:58;;;;;;;8.25;1.95;;;;;;;;;;5103817;27;20044;-67
2022/07/22 05:27:24;;;;;;;6.03;2.22;;;;;;;;;;5082915;28;20501;-67
2022/07/22 05:29:50;;;;;;;4.35;1.80;;;;;;;;;;5085743;28;20089;-67
2022/07/22 05:32:16;;;;;;;5.20;2.13;;;;;;;;;;5086686;28;20112;-67
2022/07/22 05:34:43;;;;;;;6.57;2.67;;;;;;;;;;5099520;28;20043;-67
2022/07/22 05:37:09;;;;;;;5.05;1.73;;;;;;;;;;5083110;28;20080;-68
2022/07/22 05:39:35;;;;;;;4.25;2.45;;;;;;;;;;5084957;28;20051;-67
2022/07/22 05:42:01;;;;;;;6.03;1.80;;;;;;;;;;5080631;28;20056;-70
2022/07/22 05:44:28;;;;;;;5.03;1.98;;;;;;;;;;5085311;28;20040;-70
2022/07/22 05:46:54;;;;;;;7.35;2.10;;;;;;;;;;5087921;28;20039;-70
2022/07/22 05:49:21;;;;;;;5.20;2.35;;;;;;;;;;5084506;28;20057;-70
2022/07/22 05:51:48;;;;;;;4.75;1.58;;;;;;;;;;5100124;28;20028;-70
2022/07/22 05:54:14;;;;;;;3.88;1.65;;;;;;;;;;5085130;28;20374;-70
2022/07/22 05:56:41;;;;;;;6.20;2.60;;;;;;;;;;5100242;28;20055;-70
2022/07/22 05:59:07;;;;;;;6.35;2.65;;;;;;;;;;5084998;28;20070;-70
2022/07/22 06:01:33;;;;;;;3.13;2.00;;;;;;;;;;5087159;28;20100;-70
2022/07/22 06:04:00;;;;;;;3.70;1.75;;;;;;;;;;5088371;28;20029;-70
2022/07/22 06:06:26;;;;;;;4.90;1.88;;;;;;;;;;5088626;28;20044;-70
2022/07/22 06:08:52;;;;;;;7.05;2.20;;;;;;;;;;5104195;27;20106;-70
2022/07/22 06:11:18;;;;;;;3.97;2.05;;;;;;;;;;5085672;28;20043;-70
2022/07/22 06:13:44;;;;;;;3.05;1.65;;;;;;;;;;5088185;28;20040;-70
2022/07/22 06:16:10;;;;;;;5.53;1.95;;;;;;;;;;5085520;28;20052;-70
2022/07/22 06:18:36;;;;;;;3.28;2.20;;;;;;;;;;5070346;28;20585;-70
2022/07/22 06:21:04;;;;;;;3.50;1.95;;;;;;;;;;5085326;28;20055;-70
2022/07/22 06:23:30;;;;;;;3.83;1.65;;;;;;;;;;5087304;28;20047;-70
2022/07/22 06:25:56;;;;;;;8.60;1.83;;;;;;;;;;5088092;28;20043;-70
2022/07/22 06:28:23;;;;;;;6.05;1.90;;;;;;;;;;5084074;28;20040;-70
2022/07/22 06:30:49;;;;;;;4.05;2.60;;;;;;;;;;5086488;28;20061;-70
2022/07/22 06:33:16;;;;;;;6.18;2.90;;;;;;;;;;5085373;28;20194;-70
2022/07/22 06:35:42;;;;;;;5.10;1.83;;;;;;;;;;5099530;27;20485;-70
2022/07/22 06:38:08;;;;;;;10.18;2.38;;;;;;;;;;5069481;28;20072;-70
2022/07/22 06:40:34;;;;;;;5.40;2.33;;;;;;;;;;5087083;28;20035;-70
2022/07/22 06:43:01;;;;;;;5.22;2.00;;;;;;;;;;5085526;28;20070;-70
2022/07/22 06:45:27;;;;;;;10.35;1.88;;;;;;;;;;5099633;28;20037;-70
2022/07/22 06:47:53;;;;;;;5.40;2.13;;;;;;;;;;5086048;28;20044;-70
2022/07/22 06:50:20;;;;;;;6.32;1.70;;;;;;;;;;5087045;28;20032;-70
2022/07/22 06:52:46;;;;;;;8.10;2.25;;;;;;;;;;5085229;28;20493;-70
2022/07/22 06:55:12;;;;;;;5.85;2.10;;;;;;;;;;5090518;28;20120;-70
2022/07/22 06:57:38;;;;;;;4.20;1.88;;;;;;;;;;5088834;28;20032;-67
2022/07/22 07:00:07;;;;;;;5.10;2.80;;;;;;;;;;5077607;28;20126;-68
2022/07/22 07:02:33;;;;;;;6.05;2.38;;;;;;;;;;5086140;28;20587;-68
2022/07/22 07:05:00;;;;;;;6.95;2.38;;;;;;;;;;5070244;28;20039;-67
2022/07/22 07:07:26;;;;;;;6.95;1.92;;;;;;;;;;5086913;28;20106;-67
2022/07/22 07:09:52;;;;;;;7.55;2.20;;;;;;;;;;5086047;28;20460;-67
2022/07/22 07:12:18;;;;;;;5.47;1.70;;;;;;;;;;5087300;28;20032;-67
2022/07/22 07:14:44;;;;;;;5.63;2.25;;;;;;;;;;5083125;28;20047;-67
2022/07/22 07:17:10;;;;;;;5.57;2.00;;;;;;;;;;5084947;28;20474;-68
2022/07/22 07:19:37;;;;;;;3.28;1.65;;;;;;;;;;5085307;28;20378;-67
2022/07/22 07:22:03;;;;;;;5.18;1.85;;;;;;;;;;5084689;28;20043;-67
2022/07/22 07:24:30;;;;;;;5.15;1.92;;;;;;;;;;5087129;28;20044;-67
2022/07/22 07:26:56;;;;;;;4.90;1.90;;;;;;;;;;5064518;28;20397;-67
2022/07/22 07:29:22;;;;;;;4.00;1.85;;;;;;;;;;5082427;28;20401;-68
2022/07/22 07:31:49;;;;;;;3.70;1.38;;;;;;;;;;5080272;28;20682;-67
2022/07/22 07:34:15;;;;;;;6.97;1.50;;;;;;;;;;5079459;28;20048;-67
2022/07/22 07:36:41;;;;;;;6.70;2.10;;;;;;;;;;5083046;28;20695;-67
2022/07/22 07:39:07;;;;;;;2.92;1.48;;;;;;;;;;5100441;27;20127;-67
2022/07/22 07:41:34;;;;;;;4.72;1.30;;;;;;;;;;5062281;28;20379;-67
2022/07/22 07:44:00;;;;;;;2.13;1.05;;;;;;;;;;5085160;28;20477;-70
2022/07/22 07:46:26;;;;;;;2.95;1.30;;;;;;;;;;5085638;28;20039;-70
2022/07/22 07:48:52;;;;;;;6.47;1.60;;;;;;;;;;5086049;28;20534;-70
2022/07/22 07:51:19;;;;;;;2.67;1.10;;;;;;;;;;5083665;28;20472;-70
2022/07/22 07:53:45;;;;;;;3.33;1.08;;;;;;;;;;5081608;28;20469;-69
2022/07/22 07:56:11;;;;;;;2.45;1.20;;;;;;;;;;5086450;28;20044;-69
2022/07/22 07:58:37;;;;;;;3.63;1.25;;;;;;;;;;5071425;28;20055;-70
2022/07/22 08:01:03;;;;;;;3.53;1.20;;;;;;;;;;5079722;28;20515;-69
2022/07/22 08:03:30;;;;;;;4.75;1.42;;;;;;;;;;5080431;28;20044;-69
2022/07/22 08:05:57;;;;;;;2.97;1.48;;;;;;;;;;5084442;28;20044;-69
2022/07/22 08:08:23;;;;;;;2.10;0.80;;;;;;;;;;5084843;28;20493;-69
2022/07/22 08:10:51;;;;;;;3.22;0.70;;;;;;;;;;5070077;28;20052;-69
2022/07/22 08:13:18;;;;;;;1.45;1.00;;;;;;;;;;5087739;28;20047;-70
2022/07/22 08:15:44;;;;;;;1.40;0.93;;;;;;;;;;5088469;28;20046;-69
2022/07/22 08:18:10;;;;;;;1.65;1.00;;;;;;;;;;5094117;27;20059;-70
2022/07/22 08:20:36;;;;;;;3.13;1.02;;;;;;;;;;5088607;28;20040;-69
2022/07/22 08:23:02;;;;;;;2.67;0.80;;;;;;;;;;5090127;28;20202;-69
2022/07/22 08:25:28;;;;;;;3.17;0.73;;;;;;;;;;5069284;28;20048;-70
2022/07/22 08:27:55;;;;;;;1.02;0.60;;;;;;;;;;5085555;28;20076;-70
2022/07/22 08:30:23;;;;;;;2.03;0.70;;;;;;;;;;5088443;28;20040;-70
2022/07/22 08:32:49;;;;;;;3.05;0.80;;;;;;;;;;5090052;28;20112;-69
2022/07/22 08:35:16;;;;;;;2.13;0.88;;;;;;;;;;5081864;28;20071;-70
2022/07/22 08:37:42;;;;;;;4.32;1.25;;;;;;;;;;5084870;28;20047;-70
2022/07/22 08:40:08;;;;;;;2.88;0.80;;;;;;;;;;5070306;28;20335;-70
2022/07/22 08:42:42;;;;;;;1.27;0.80;;;;;;;;;;5086062;28;20512;-70
2022/07/22 08:45:09;;;;;;;3.65;1.00;;;;;;;;;;5081155;28;20044;-70
2022/07/22 08:47:36;;;;;;;1.70;1.00;;;;;;;;;;5084386;28;20079;-69
2022/07/22 08:50:02;;;;;;;1.67;0.75;;;;;;;;;;5083912;28;20141;-69
2022/07/22 08:52:29;;;;;;;6.70;1.58;;;;;;;;;;5078795;28;20032;-70
2022/07/22 08:54:55;;;;;;;2.78;0.98;;;;;;;;;;5100018;27;20401;-70
2022/07/22 08:57:22;;;;;;;2.33;1.00;;;;;;;;;;5078384;28;20024;-70
2022/07/22 08:59:51;;;;;;;3.00;1.48;;;;;;;;;;5081288;28;20097;-70
2022/07/22 09:02:18;;;;;;;2.95;1.10;;;;;;;;;;5082270;28;20063;-69
2022/07/22 09:04:51;;;;;;;4.60;1.30;;;;;;;;;;5082254;28;20106;-69
2022/07/22 09:07:27;;;;;;;2.50;1.20;;;;;;;;;;5085105;28;20039;-69
2022/07/22 09:09:54;;;;;;;1.75;1.15;;;;;;;;;;5086417;28;20035;-70
2022/07/22 09:12:20;;;;;;;6.70;1.48;;;;;;;;;;5085142;28;20051;-69
2022/07/22 09:14:51;;;;;;;3.33;1.15;;;;;;;;;;5067337;28;20413;-69
2022/07/22 09:17:24;;;;;;;3.50;1.52;;;;;;;;;;5083677;28;20048;-70
2022/07/22 09:19:50;;;;;;;2.80;0.88;;;;;;;;;;5079747;28;20050;-69
2022/07/22 09:22:30;;;;;;;2.38;1.05;;;;;;;;;;5083734;28;20063;-70
2022/07/22 09:24:56;;;;;;;2.17;1.10;;;;;;;;;;5088053;28;20047;-70
2022/07/22 09:27:24;;;;;;;2.92;1.77;;;;;;;;;;5086511;28;20401;-69
2022/07/22 09:29:51;;;;;;;4.55;1.50;;;;;;;;;;5085647;28;20052;-70
2022/07/22 09:32:17;;;;;;;4.68;1.50;;;;;;;;;;5082669;28;20048;-70
2022/07/22 09:34:43;;;;;;;2.30;1.10;;;;;;;;;;5079548;28;20076;-70
2022/07/22 09:37:11;;;;;;;1.83;1.20;;;;;;;;;;5077132;28;20044;-70
2022/07/22 09:39:38;;;;;;;3.95;1.30;;;;;;;;;;5088654;28;20075;-70
2022/07/22 09:42:06;;;;;;;2.53;1.23;;;;;;;;;;5087192;28;20105;-69
2022/07/22 09:44:32;;;;;;;1.60;0.90;;;;;;;;;;5086549;28;20040;-69
2022/07/22 09:47:01;;;;;;;2.20;1.02;;;;;;;;;;5090685;28;20114;-69
2022/07/22 09:49:35;;;;;;;1.90;0.63;;;;;;;;;;5090059;28;20640;-70
2022/07/22 09:52:01;;;;;;;1.92;1.02;;;;;;;;;;5098053;27;20043;-70
2022/07/22 09:54:29;;;;;;;1.00;0.60;;;;;;;;;;5080014;28;20039;-70
2022/07/22 09:56:55;;;;;;;0.65;0.45;;;;;;;;;;5090270;28;20036;-70
2022/07/22 09:59:22;;;;;;;2.65;0.57;;;;;;;;;;5087106;28;20084;-70
2022/07/22 10:01:50;;;;;;;1.33;0.60;;;;;;;;;;5086995;28;20721;-70
2022/07/22 10:04:19;;;;;;;2.70;1.15;;;;;;;;;;5082814;28;20363;-69
2022/07/22 10:06:47;;;;;;;1.35;0.73;;;;;;;;;;5052659;28;20047;-70
2022/07/22 10:09:14;;;;;;;1.70;0.70;;;;;;;;;;5092619;28;20036;-70
2022/07/22 10:11:44;;;;;;;7.82;3.55;;;;;;;;;;5083665;28;20031;-71
2022/07/22 10:14:15;;;;;;;1.88;1.15;;;;;;;;;;5091235;28;20120;-71
2022/07/22 10:16:41;;;;;;;4.55;1.25;;;;;;;;;;5085412;28;20048;-70
2022/07/22 10:19:08;;;;;;;3.70;0.88;;;;;;;;;;5103982;27;20059;-70
2022/07/22 10:21:34;;;;;;;1.08;0.80;;;;;;;;;;5069114;28;20055;-70
2022/07/22 10:24:07;;;;;;;4.68;2.10;;;;;;;;;;5082335;28;20446;-70
2022/07/22 10:26:49;;;;;;;3.50;2.00;;;;;;;;;;5086075;28;20039;-70
2022/07/22 10:29:32;;;;;;;2.05;1.02;;;;;;;;;;5092400;28;20040;-70
2022/07/22 10:32:16;;;;;;;1.60;0.90;;;;;;;;;;5085654;28;20330;-70
2022/07/22 10:34:43;;;;;;;1.38;0.82;;;;;;;;;;5089996;28;20039;-71
2022/07/22 10:37:28;;;;;;;1.48;1.05;;;;;;;;;;5089855;28;20054;-70
2022/07/22 10:40:13;;;;;;;1.95;0.82;;;;;;;;;;5090340;28;20075;-70
2022/07/22 10:42:54;;;;;;;5.38;0.90;;;;;;;;;;5083898;28;20075;-70
2022/07/22 10:45:20;;;;;;;1.20;0.60;;;;;;;;;;5088112;28;20056;-70
2022/07/22 10:47:53;;;;;;;2.80;0.98;;;;;;;;;;5081603;28;20056;-70
2022/07/22 10:50:35;;;;;;;1.73;0.73;;;;;;;;;;5090243;28;20035;-70
2022/07/22 10:53:05;;;;;;;1.63;0.90;;;;;;;;;;5085906;28;20052;-70
2022/07/22 10:55:33;;;;;;;0.80;0.73;;;;;;;;;;5094429;28;20036;-70
2022/07/22 10:57:59;;;;;;;1.83;0.80;;;;;;;;;;5089388;28;20043;-70
2022/07/22 11:00:25;;;;;;;1.92;0.90;;;;;;;;;;5108877;27;20039;-70
2022/07/22 11:02:51;;;;;;;0.88;0.77;;;;;;;;;;5082733;28;20040;-71
2022/07/22 11:05:27;;;;;;;1.50;0.93;;;;;;;;;;5090689;28;20050;-70
2022/07/22 11:07:53;;;;;;;4.03;0.80;;;;;;;;;;5095450;28;20087;-70
2022/07/22 11:10:20;;;;;;;1.52;0.70;;;;;;;;;;5093112;28;20500;-70
2022/07/22 11:12:47;;;;;;;3.38;1.55;;;;;;;;;;5090200;28;20043;-70
2022/07/22 11:15:13;;;;;;;1.08;0.70;;;;;;;;;;5090535;28;20265;-70
2022/07/22 11:17:39;;;;;;;1.10;0.80;;;;;;;;;;5089594;28;20035;-70
2022/07/22 11:20:08;;;;;;;1.80;0.57;;;;;;;;;;5085145;28;20055;-70
2022/07/22 11:22:35;;;;;;;0.85;0.70;;;;;;;;;;5087763;28;20128;-70
2022/07/22 11:25:02;;;;;;;2.17;0.77;;;;;;;;;;5086713;28;20054;-70
2022/07/22 11:27:28;;;;;;;1.08;0.70;;;;;;;;;;5088937;28;20063;-70
2022/07/22 11:29:56;;;;;;;1.45;0.93;;;;;;;;;;5085826;28;20048;-70
2022/07/22 11:32:23;;;;;;;2.33;1.00;;;;;;;;;;5091323;28;20119;-70
2022/07/22 11:34:49;;;;;;;1.10;0.80;;;;;;;;;;5089025;28;20072;-70
2022/07/22 11:37:16;;;;;;;3.60;1.17;;;;;;;;;;5092138;28;20036;-70
2022/07/22 11:39:44;;;;;;;1.15;0.63;;;;;;;;;;5079687;28;20043;-70
2022/07/22 11:42:10;;;;;;;2.85;1.25;;;;;;;;;;5086042;28;20161;-70
2022/07/22 11:44:37;;;;;;;5.28;0.98;;;;;;;;;;5080566;28;20466;-70
2022/07/22 11:47:04;;;;;;;3.35;1.10;;;;;;;;;;5090775;28;20112;-70
2022/07/22 11:49:33;;;;;;;4.13;1.60;;;;;;;;;;5088429;28;20080;-70
2022/07/22 11:51:59;;;;;;;1.92;0.70;;;;;;;;;;5082697;28;20036;-70
2022/07/22 11:54:26;;;;;;;1.92;0.77;;;;;;;;;;5080312;28;20036;-70
2022/07/22 11:56:53;;;;;;;2.80;1.13;;;;;;;;;;5088083;28;20123;-71
2022/07/22 11:59:19;;;;;;;3.28;1.17;;;;;;;;;;5086793;28;20299;-70
2022/07/22 12:01:46;;;;;;;1.98;1.38;;;;;;;;;;5087548;28;20463;-70
2022/07/22 12:04:13;;;;;;;4.47;1.25;;;;;;;;;;5088621;28;20687;-70
2022/07/22 12:06:41;;;;;;;1.55;0.90;;;;;;;;;;5087491;28;20044;-70
2022/07/22 12:09:07;;;;;;;5.32;1.92;;;;;;;;;;5086895;28;20051;-69
2022/07/22 12:11:34;;;;;;;3.58;1.20;;;;;;;;;;5085638;28;20039;-69
2022/07/22 12:14:05;;;;;;;4.80;1.38;;;;;;;;;;5104678;28;20350;-69
2022/07/22 12:16:31;;;;;;;3.30;1.35;;;;;;;;;;5112094;27;20047;-70
2022/07/22 12:19:05;;;;;;;3.25;1.63;;;;;;;;;;5090353;28;20196;-69
2022/07/22 12:21:33;;;;;;;3.22;0.90;;;;;;;;;;5083827;28;20409;-69
2022/07/22 12:24:07;;;;;;;3.03;1.65;;;;;;;;;;5091864;28;20032;-69
2022/07/22 12:26:47;;;;;;;2.88;1.35;;;;;;;;;;5082654;28;20067;-69
2022/07/22 12:29:17;;;;;;;4.43;1.20;;;;;;;;;;5087467;28;20048;-69
2022/07/22 12:31:44;;;;;;;2.92;1.50;;;;;;;;;;5105023;27;20070;-69
2022/07/22 12:34:11;;;;;;;6.25;1.85;;;;;;;;;;5112957;27;20052;-69
2022/07/22 12:36:37;;;;;;;7.30;1.60;;;;;;;;;;5089843;28;20451;-69
2022/07/22 12:39:19;;;;;;;2.67;1.10;;;;;;;;;;5092603;28;20101;-69
2022/07/22 12:41:46;;;;;;;5.25;1.92;;;;;;;;;;5088252;28;20044;-69
2022/07/22 12:44:16;;;;;;;2.42;1.48;;;;;;;;;;5096773;28;20433;-69
2022/07/22 12:46:51;;;;;;;2.67;1.70;;;;;;;;;;5091224;28;20490;-69
2022/07/22 12:49:19;;;;;;;4.22;1.23;;;;;;;;;;5104467;27;20048;-70
2022/07/22 12:52:03;;;;;;;6.32;1.42;;;;;;;;;;5102726;27;20040;-69
2022/07/22 12:54:30;;;;;;;5.07;1.20;;;;;;;;;;5094791;28;20038;-69
2022/07/22 12:56:56;;;;;;;3.83;1.27;;;;;;;;;;5090317;28;20032;-69
2022/07/22 12:59:22;;;;;;;2.25;1.50;;;;;;;;;;5111196;27;20401;-69
2022/07/22 13:01:48;;;;;;;3.53;1.00;;;;;;;;;;5106870;27;20476;-69
2022/07/22 13:04:15;;;;;;;3.05;1.20;;;;;;;;;;5093321;28;20036;-69
2022/07/22 13:06:41;;;;;;;4.40;2.13;;;;;;;;;;5086491;28;20040;-69
2022/07/22 13:09:07;;;;;;;2.95;1.35;;;;;;;;;;5089653;28;20562;-69
2022/07/22 13:11:39;;;;;;;2.88;1.35;;;;;;;;;;5105432;27;20495;-69
2022/07/22 13:14:05;;;;;;;3.95;1.35;;;;;;;;;;5063427;28;20545;-69
2022/07/22 13:16:33;;;;;;;7.22;1.33;;;;;;;;;;5085239;28;20424;-69
2022/07/22 13:18:59;;;;;;;2.83;1.30;;;;;;;;;;5088735;28;20039;-69
2022/07/22 13:21:25;;;;;;;2.30;1.10;;;;;;;;;;5089732;28;20097;-69
2022/07/22 13:23:51;;;;;;;5.57;1.50;;;;;;;;;;5088182;28;20044;-69
2022/07/22 13:26:17;;;;;;;2.63;1.60;;;;;;;;;;5070465;28;20085;-69
2022/07/22 13:28:45;;;;;;;2.47;1.20;;;;;;;;;;5090462;28;20527;-69
2022/07/22 13:31:11;;;;;;;4.60;1.35;;;;;;;;;;5092342;28;20439;-69
2022/07/22 13:33:37;;;;;;;3.45;1.15;;;;;;;;;;5090385;28;20036;-69
2022/07/22 13:36:04;;;;;;;1.95;1.10;;;;;;;;;;5100473;28;20540;-69
2022/07/22 13:38:31;;;;;;;1.67;0.90;;;;;;;;;;5080788;28;20075;-69
2022/07/22 13:40:57;;;;;;;2.63;1.15;;;;;;;;;;5083309;28;20036;-69
2022/07/22 13:43:24;;;;;;;6.68;1.70;;;;;;;;;;5083487;28;20082;-69
2022/07/22 13:45:51;;;;;;;2.83;1.25;;;;;;;;;;5103979;28;20244;-69
2022/07/22 13:48:18;;;;;;;3.47;1.42;;;;;;;;;;5089350;28;20513;-69
2022/07/22 13:50:44;;;;;;;3.22;1.35;;;;;;;;;;5084302;28;20382;-69
2022/07/22 13:53:11;;;;;;;3.25;1.63;;;;;;;;;;5089126;28;20043;-69
2022/07/22 13:55:40;;;;;;;3.92;1.70;;;;;;;;;;5083988;28;20047;-69
2022/07/22 13:58:07;;;;;;;2.88;1.38;;;;;;;;;;5087373;28;20043;-71
2022/07/22 14:00:33;;;;;;;7.05;1.52;;;;;;;;;;5088550;28;20489;-71
2022/07/22 14:03:00;;;;;;;4.00;1.58;;;;;;;;;;5089494;28;20051;-71
2022/07/22 14:05:27;;;;;;;4.50;1.38;;;;;;;;;;5090563;28;20085;-71
2022/07/22 14:07:53;;;;;;;4.22;1.60;;;;;;;;;;5084986;28;20051;-71
2022/07/22 14:10:19;;;;;;;4.07;1.45;;;;;;;;;;5085076;28;20099;-71
2022/07/22 14:12:46;;;;;;;3.80;1.98;;;;;;;;;;5086753;28;20040;-69
2022/07/22 14:15:14;;;;;;;2.70;1.40;;;;;;;;;;5104536;28;20174;-71
2022/07/22 14:17:41;;;;;;;5.65;1.48;;;;;;;;;;5087588;28;20032;-71
2022/07/22 14:20:07;;;;;;;5.88;1.98;;;;;;;;;;5102121;28;20136;-71
2022/07/22 14:22:34;;;;;;;6.15;1.48;;;;;;;;;;5093603;28;20277;-71
2022/07/22 14:25:00;;;;;;;1.88;1.20;;;;;;;;;;5090015;28;20067;-71
2022/07/22 14:27:26;;;;;;;4.40;1.50;;;;;;;;;;5089541;28;20048;-71
2022/07/22 14:29:52;;;;;;;6.63;1.60;;;;;;;;;;5092385;28;20522;-71
2022/07/22 14:32:19;;;;;;;9.30;2.00;;;;;;;;;;5114643;27;20047;-71
2022/07/22 14:34:45;;;;;;;3.60;1.30;;;;;;;;;;5098702;28;20032;-71
2022/07/22 14:37:11;;;;;;;4.85;1.15;;;;;;;;;;5074063;28;20039;-71
2022/07/22 14:39:37;;;;;;;3.10;1.40;;;;;;;;;;5094064;28;20078;-70
2022/07/22 14:42:04;;;;;;;3.88;1.38;;;;;;;;;;5092080;28;20178;-70